Time;durP1;ratioP1;P1;durP2;ratioP2;P2;SDS_P1;SDS_P2;PMS_P1;PMS_P2;Temp;Humidity;BMP_temperature;BMP_pressure;BME280_temperature;BME280_humidity;BME280_pressure;Samples;Min_cycle;Max_cycle;Signal;HPM_P1;HPM_P2
2023/01/02 00:01:27;;;;;;;10.13;3.15;;;10.30;99.90;;;;;;5082107;27;19920;-63
2023/01/02 00:03:55;;;;;;;;;;;10.30;99.90;;;;;;5079365;28;20111;-63
2023/01/02 00:06:27;;;;;;;15.88;3.00;;;10.30;99.90;;;;;;5075083;28;19928;-60
2023/01/02 00:08:52;;;;;;;12.68;3.70;;;10.30;99.90;;;;;;5071481;28;20040;-62
2023/01/02 00:11:18;;;;;;;;;;;10.30;99.90;;;;;;5085181;28;20040;-62
2023/01/02 00:13:44;;;;;;;11.70;3.03;;;10.30;99.90;;;;;;5080258;28;19966;-62
2023/01/02 00:16:09;;;;;;;;;;;10.30;99.90;;;;;;5084729;28;20037;-63
2023/01/02 00:18:35;;;;;;;14.43;3.53;;;10.30;99.90;;;;;;5070615;28;20237;-63
2023/01/02 00:21:02;;;;;;;;;;;10.30;99.90;;;;;;5071361;28;20058;-63
2023/01/02 00:23:28;;;;;;;11.23;2.83;;;10.30;99.90;;;;;;5065904;28;20333;-62
2023/01/02 00:25:54;;;;;;;12.20;3.28;;;10.30;99.90;;;;;;5064756;28;20526;-62
2023/01/02 00:28:19;;;;;;;;;;;10.30;99.90;;;;;;5064969;28;20063;-62
2023/01/02 00:30:45;;;;;;;15.57;3.88;;;10.30;99.90;;;;;;5063035;28;19928;-62
2023/01/02 00:33:10;;;;;;;;;;;10.30;99.90;;;;;;5066292;28;20029;-62
2023/01/02 00:35:37;;;;;;;10.85;3.85;;;10.30;99.90;;;;;;5067772;28;20104;-63
2023/01/02 00:38:04;;;;;;;12.55;3.53;;;10.30;99.90;;;;;;5072584;28;20048;-63
2023/01/02 00:40:29;;;;;;;8.13;2.60;;;10.30;99.90;;;;;;5069103;28;20040;-63
2023/01/02 00:42:55;;;;;;;;;;;10.30;99.90;;;;;;5071164;28;20438;-62
2023/01/02 00:45:21;;;;;;;15.95;3.08;;;10.30;99.90;;;;;;5061923;28;19963;-62
2023/01/02 00:47:46;;;;;;;;;;;10.30;99.90;;;;;;5071515;28;20047;-62
2023/01/02 00:50:12;;;;;;;13.95;3.53;;;10.40;99.90;;;;;;5066325;28;19928;-63
2023/01/02 00:52:37;;;;;;;;;;;10.30;99.90;;;;;;5073746;28;21074;-62
2023/01/02 00:55:03;;;;;;;10.13;3.83;;;10.30;99.90;;;;;;5063094;28;19916;-62
2023/01/02 00:57:29;;;;;;;;;;;10.30;99.90;;;;;;5060205;28;20053;-62
2023/01/02 00:59:54;;;;;;;26.27;3.72;;;10.20;99.90;;;;;;5066131;28;19916;-61
2023/01/02 01:02:20;;;;;;;;;;;10.20;99.90;;;;;;5070370;28;20048;-62
2023/01/02 01:04:45;;;;;;;15.82;4.05;;;10.30;99.90;;;;;;5063929;28;19920;-61
2023/01/02 01:07:11;;;;;;;;;;;10.30;99.90;;;;;;5066785;28;20032;-62
2023/01/02 01:09:36;;;;;;;11.73;3.15;;;10.30;99.90;;;;;;5066874;28;19923;-62
2023/01/02 01:12:02;;;;;;;22.33;3.75;;;10.40;99.90;;;;;;5069985;28;20507;-63
2023/01/02 01:14:28;;;;;;;;;;;10.40;99.90;;;;;;5068005;28;20040;-62
2023/01/02 01:16:53;;;;;;;12.50;3.08;;;10.40;99.90;;;;;;5071893;28;19988;-63
2023/01/02 01:19:19;;;;;;;16.80;2.88;;;10.40;99.90;;;;;;5069904;28;20040;-62
2023/01/02 01:21:44;;;;;;;10.50;3.08;;;10.40;99.90;;;;;;5070275;28;20193;-63
2023/01/02 01:24:10;;;;;;;;;;;10.40;99.90;;;;;;5062717;28;20036;-62
2023/01/02 01:26:35;;;;;;;8.63;3.13;;;10.40;99.90;;;;;;5067833;28;19924;-63
2023/01/02 01:29:01;;;;;;;10.02;2.60;;;10.50;99.90;;;;;;5064013;28;20046;-62
2023/01/02 01:31:27;;;;;;;;;;;10.60;99.90;;;;;;5070671;28;20036;-62
2023/01/02 01:33:53;;;;;;;9.60;2.40;;;10.60;99.90;;;;;;5065519;28;20024;-62
2023/01/02 01:36:20;;;;;;;;;;;10.70;99.90;;;;;;5072177;28;20042;-63
2023/01/02 01:38:45;;;;;;;13.23;3.08;;;10.80;99.90;;;;;;5067120;28;19924;-63
2023/01/02 01:41:12;;;;;;;;;;;10.80;99.90;;;;;;5066058;28;20028;-63
2023/01/02 01:43:55;;;;;;;21.15;2.72;;;10.90;99.90;;;;;;5067206;28;19939;-62
2023/01/02 01:46:43;;;;;;;13.50;2.65;;;10.90;99.90;;;;;;5066754;28;20768;-63
2023/01/02 01:49:08;;;;;;;16.90;3.20;;;11.00;99.90;;;;;;5062581;28;20045;-62
2023/01/02 01:51:36;;;;;;;;;;;11.00;99.90;;;;;;5071697;28;20047;-62
2023/01/02 01:54:09;;;;;;;13.82;3.58;;;11.10;99.90;;;;;;5064037;28;19927;-62
2023/01/02 01:56:37;;;;;;;13.55;3.53;;;11.20;99.90;;;;;;5067779;28;20052;-62
2023/01/02 01:59:04;;;;;;;9.32;2.58;;;11.20;99.90;;;;;;5067410;28;20032;-62
2023/01/02 02:01:29;;;;;;;12.02;2.78;;;11.30;99.90;;;;;;5070476;28;20044;-62
2023/01/02 02:03:55;;;;;;;;;;;11.30;99.90;;;;;;5063109;28;20112;-62
2023/01/02 02:06:21;;;;;;;13.85;3.22;;;11.30;99.90;;;;;;5065882;28;20459;-62
2023/01/02 02:08:46;;;;;;;;;;;11.30;99.90;;;;;;5062899;28;20043;-63
2023/01/02 02:11:13;;;;;;;12.27;2.78;;;11.20;99.90;;;;;;5070127;28;19919;-63
2023/01/02 02:13:39;;;;;;;9.70;3.00;;;11.10;99.90;;;;;;5066002;28;20045;-62
2023/01/02 02:16:10;;;;;;;11.13;2.75;;;11.10;99.90;;;;;;5068157;28;20120;-63
2023/01/02 02:18:39;;;;;;;13.20;2.38;;;11.10;99.90;;;;;;5067913;28;20521;-63
2023/01/02 02:21:20;;;;;;;15.98;2.53;;;11.10;99.90;;;;;;5067614;28;20037;-62
2023/01/02 02:24:13;;;;;;;11.90;2.90;;;11.00;99.90;;;;;;5064279;28;20036;-63
2023/01/02 02:26:48;;;;;;;11.10;2.65;;;11.00;99.90;;;;;;5067566;28;20576;-63
2023/01/02 02:29:43;;;;;;;10.38;2.25;;;11.00;99.90;;;;;;5065713;28;20516;-62
2023/01/02 02:32:15;;;;;;;11.35;2.42;;;11.00;99.90;;;;;;5063899;28;20032;-63
2023/01/02 02:35:06;;;;;;;10.88;2.58;;;11.00;99.90;;;;;;5065247;28;20040;-63
2023/01/02 02:37:44;;;;;;;12.63;3.35;;;11.10;99.90;;;;;;5070646;28;20504;-62
2023/01/02 02:40:34;;;;;;;11.15;2.58;;;11.10;99.90;;;;;;5065216;28;20068;-64
2023/01/02 02:43:18;;;;;;;14.63;3.05;;;11.00;99.90;;;;;;5068185;28;20033;-62
2023/01/02 02:46:07;;;;;;;14.32;3.30;;;11.00;99.90;;;;;;5067804;28;20434;-62
2023/01/02 02:48:42;;;;;;;14.50;3.33;;;11.10;99.90;;;;;;5064039;28;20106;-60
2023/01/02 02:51:34;;;;;;;15.20;2.85;;;11.00;99.90;;;;;;5063805;28;20031;-62
2023/01/02 02:54:08;;;;;;;11.25;2.90;;;11.00;99.90;;;;;;5043530;28;20115;-62
2023/01/02 02:56:34;;;;;;;14.23;3.13;;;11.00;99.90;;;;;;5064998;28;20141;-62
2023/01/02 02:59:01;;;;;;;14.65;3.33;;;11.00;99.90;;;;;;5062796;28;20064;-62
2023/01/02 03:01:28;;;;;;;12.55;2.78;;;11.00;99.90;;;;;;5069186;28;20040;-63
2023/01/02 03:03:54;;;;;;;12.90;3.03;;;11.00;99.90;;;;;;5063109;28;20090;-62
2023/01/02 03:06:27;;;;;;;;;;;11.10;99.90;;;;;;5068063;28;20048;-61
2023/01/02 03:09:19;;;;;;;11.98;3.15;;;11.10;99.90;;;;;;5057346;28;19924;-61
2023/01/02 03:11:54;;;;;;;6.57;2.45;;;11.10;99.90;;;;;;5068467;28;20040;-62
2023/01/02 03:14:44;;;;;;;13.52;2.50;;;11.20;99.90;;;;;;5060907;28;20339;-63
2023/01/02 03:17:25;;;;;;;12.30;2.50;;;11.30;99.90;;;;;;5064355;28;20033;-62
2023/01/02 03:19:57;;;;;;;9.15;2.53;;;11.30;99.90;;;;;;5052648;28;20068;-62
2023/01/02 03:22:29;;;;;;;9.63;2.83;;;11.40;99.90;;;;;;5065353;28;20044;-62
2023/01/02 03:24:57;;;;;;;11.50;2.55;;;11.30;99.90;;;;;;5055067;28;20121;-61
2023/01/02 03:27:28;;;;;;;9.48;2.33;;;11.40;99.90;;;;;;5064753;28;20048;-61
2023/01/02 03:30:03;;;;;;;14.00;2.95;;;11.50;99.90;;;;;;5054783;28;20043;-62
2023/01/02 03:32:37;;;;;;;11.63;2.88;;;11.60;99.90;;;;;;5067569;28;20106;-62
2023/01/02 03:35:09;;;;;;;11.38;2.47;;;11.50;99.90;;;;;;5061126;28;20086;-63
2023/01/02 03:37:39;;;;;;;14.52;2.90;;;11.50;99.90;;;;;;5065793;28;20048;-62
2023/01/02 03:40:15;;;;;;;18.05;2.30;;;11.50;99.90;;;;;;5060376;28;20036;-62
2023/01/02 03:42:48;;;;;;;11.50;3.17;;;11.50;99.90;;;;;;5067987;28;20117;-63
2023/01/02 03:45:16;;;;;;;12.98;2.97;;;11.50;99.90;;;;;;5059019;28;20098;-62
2023/01/02 03:47:54;;;;;;;13.63;3.22;;;11.50;99.90;;;;;;5066994;28;20041;-63
2023/01/02 03:50:26;;;;;;;15.70;2.92;;;11.50;99.90;;;;;;5064723;28;20123;-63
2023/01/02 03:52:51;;;;;;;11.65;2.53;;;11.50;99.90;;;;;;5070024;28;20028;-63
2023/01/02 03:55:17;;;;;;;;;;;11.60;99.90;;;;;;5066013;28;20048;-62
2023/01/02 03:58:03;;;;;;;11.25;2.83;;;11.60;99.90;;;;;;5074923;28;20002;-62
2023/01/02 04:01:03;;;;;;;15.45;3.28;;;11.60;99.90;;;;;;5067613;28;20056;-63
2023/01/02 04:03:39;;;;;;;19.38;3.08;;;11.60;99.90;;;;;;5064847;28;20044;-63
2023/01/02 04:06:11;;;;;;;16.75;4.10;;;11.70;99.90;;;;;;5064220;28;20522;-62
2023/01/02 04:08:51;;;;;;;12.38;3.05;;;11.60;99.90;;;;;;5067463;28;20505;-62
2023/01/02 04:11:20;;;;;;;17.50;3.92;;;11.70;99.90;;;;;;5071174;28;20454;-63
2023/01/02 04:13:55;;;;;;;9.25;2.60;;;11.70;99.90;;;;;;5066771;28;20075;-62
2023/01/02 04:16:28;;;;;;;11.07;2.75;;;11.70;99.90;;;;;;5065820;28;20044;-62
2023/01/02 04:19:01;;;;;;;12.93;2.95;;;11.70;99.90;;;;;;5058764;28;20498;-63
2023/01/02 04:21:30;;;;;;;11.75;2.47;;;11.70;99.90;;;;;;5064569;28;20036;-62
2023/01/02 04:24:13;;;;;;;15.40;3.15;;;11.70;99.90;;;;;;5068137;28;20032;-62
2023/01/02 04:26:45;;;;;;;10.20;2.95;;;11.70;99.90;;;;;;5067431;28;20040;-63
2023/01/02 04:29:11;;;;;;;14.23;2.90;;;11.60;99.90;;;;;;5064490;28;20060;-63
2023/01/02 04:31:57;;;;;;;;;;;11.60;99.90;;;;;;5069357;28;20042;-62
2023/01/02 04:34:25;;;;;;;11.20;2.40;;;11.60;99.90;;;;;;5059601;28;20012;-62
2023/01/02 04:36:51;;;;;;;16.30;3.05;;;11.50;99.90;;;;;;5069699;28;20041;-62
2023/01/02 04:39:18;;;;;;;;;;;11.50;99.90;;;;;;5066569;28;20086;-62
2023/01/02 04:41:44;;;;;;;12.02;2.60;;;11.40;99.90;;;;;;5071246;28;19923;-63
2023/01/02 04:44:09;;;;;;;13.18;2.53;;;11.50;99.90;;;;;;5067212;28;20036;-63
2023/01/02 04:46:35;;;;;;;;;;;11.40;99.90;;;;;;5072328;28;20039;-62
2023/01/02 04:49:00;;;;;;;12.73;2.35;;;11.40;99.90;;;;;;5065900;28;19920;-62
2023/01/02 04:51:26;;;;;;;;;;;11.40;99.90;;;;;;5076163;28;20040;-62
2023/01/02 04:53:52;;;;;;;8.32;2.17;;;11.40;99.90;;;;;;5059890;28;20296;-62
2023/01/02 04:56:19;;;;;;;19.30;3.03;;;11.40;99.90;;;;;;5065656;28;20040;-63
2023/01/02 04:58:45;;;;;;;14.73;2.70;;;11.40;99.90;;;;;;5064451;28;20048;-63
2023/01/02 05:01:13;;;;;;;9.85;2.17;;;11.40;99.90;;;;;;5064424;28;20059;-62
2023/01/02 05:03:44;;;;;;;11.55;2.58;;;11.40;99.90;;;;;;5064791;28;20043;-62
2023/01/02 05:06:09;;;;;;;11.50;2.40;;;11.40;99.90;;;;;;5067512;28;20294;-60
2023/01/02 05:08:36;;;;;;;;;;;11.40;99.90;;;;;;5062996;28;20630;-63
2023/01/02 05:11:10;;;;;;;11.18;3.33;;;11.30;99.90;;;;;;5065902;28;19920;-62
2023/01/02 05:13:36;;;;;;;11.93;3.15;;;11.40;99.90;;;;;;5064277;28;20047;-62
2023/01/02 05:16:02;;;;;;;;;;;11.30;99.90;;;;;;5066682;28;20040;-62
2023/01/02 05:18:28;;;;;;;10.60;2.22;;;11.40;99.90;;;;;;5065732;28;19916;-63
2023/01/02 05:23:53;;;;;;;15.73;2.78;;;11.40;99.90;;;;;;5061342;28;20041;-63
2023/01/02 05:26:18;;;;;;;;;;;11.40;99.90;;;;;;5068887;28;20094;-62
2023/01/02 05:28:44;;;;;;;16.45;3.10;;;11.50;99.90;;;;;;5066673;28;19920;-62
2023/01/02 05:31:10;;;;;;;;;;;11.50;99.90;;;;;;5069015;28;20046;-62
2023/01/02 05:33:35;;;;;;;12.20;2.95;;;11.50;99.90;;;;;;5064534;28;19920;-62
2023/01/02 05:36:03;;;;;;;;;;;11.40;99.90;;;;;;5069483;28;20047;-62
2023/01/02 05:38:30;;;;;;;15.07;3.17;;;11.40;99.90;;;;;;5069123;28;20009;-63
2023/01/02 05:41:00;;;;;;;15.60;3.45;;;11.40;99.90;;;;;;5068322;28;20036;-62
2023/01/02 05:43:28;;;;;;;15.27;2.92;;;11.30;99.90;;;;;;5066852;28;20089;-63
2023/01/02 05:45:53;;;;;;;13.30;3.03;;;11.40;99.90;;;;;;5067086;28;20172;-63
2023/01/02 05:48:19;;;;;;;;;;;11.40;99.90;;;;;;5057633;28;20733;-60
2023/01/02 05:50:44;;;;;;;20.25;3.33;;;11.30;99.90;;;;;;5062464;28;19959;-63
2023/01/02 05:53:10;;;;;;;;;;;11.30;99.90;;;;;;5067597;28;20514;-63
2023/01/02 05:55:36;;;;;;;19.75;2.75;;;11.30;99.90;;;;;;5063139;28;19916;-62
2023/01/02 05:58:01;;;;;;;;;;;11.30;99.90;;;;;;5067469;28;20037;-63
2023/01/02 06:00:27;;;;;;;18.27;3.47;;;11.30;99.90;;;;;;5065318;28;19942;-62
2023/01/02 06:02:52;;;;;;;;;;;11.20;99.90;;;;;;5070040;28;20036;-62
2023/01/02 06:05:18;;;;;;;11.15;3.30;;;11.20;99.90;;;;;;5066167;28;20425;-56
2023/01/02 06:07:43;;;;;;;;;;;11.20;99.90;;;;;;5071589;28;20039;-62
2023/01/02 06:10:09;;;;;;;12.75;2.83;;;11.20;99.90;;;;;;5065030;28;19939;-63
2023/01/02 06:12:34;;;;;;;;;;;11.20;99.90;;;;;;5068671;28;20036;-62
2023/01/02 06:15:00;;;;;;;14.38;2.75;;;11.20;99.90;;;;;;5063021;28;19916;-62
2023/01/02 06:17:26;;;;;;;;;;;11.20;99.90;;;;;;5074357;28;20127;-62
2023/01/02 06:19:51;;;;;;;16.73;3.97;;;11.10;99.90;;;;;;5069115;28;19939;-62
2023/01/02 06:22:17;;;;;;;;;;;11.10;99.90;;;;;;5069679;28;20054;-62
2023/01/02 06:24:42;;;;;;;13.57;2.50;;;11.00;99.90;;;;;;5060603;28;19920;-64
2023/01/02 06:27:08;;;;;;;;;;;11.00;99.90;;;;;;5066122;28;20041;-62
2023/01/02 06:29:33;;;;;;;17.00;3.85;;;10.90;99.90;;;;;;5059648;28;19928;-63
2023/01/02 06:31:59;;;;;;;9.45;3.17;;;10.90;99.90;;;;;;5064680;28;20104;-62
2023/01/02 06:34:24;;;;;;;;;;;10.80;99.90;;;;;;5067834;28;20174;-63
2023/01/02 06:36:50;;;;;;;16.13;3.22;;;10.80;99.90;;;;;;5064537;28;19923;-63
2023/01/02 06:39:15;;;;;;;;;;;10.80;99.90;;;;;;5064911;28;20488;-62
2023/01/02 06:41:41;;;;;;;8.52;3.13;;;10.80;99.90;;;;;;5068950;28;19931;-62
2023/01/02 06:44:09;;;;;;;;;;;10.70;99.90;;;;;;5064283;28;20032;-61
2023/01/02 06:46:35;;;;;;;15.52;3.15;;;10.70;99.90;;;;;;5068738;28;19935;-62
2023/01/02 06:49:00;;;;;;;;;;;10.70;99.90;;;;;;5066300;28;20036;-60
2023/01/02 06:51:26;;;;;;;9.38;2.90;;;10.60;99.90;;;;;;5063823;28;19916;-62
2023/01/02 06:53:51;;;;;;;14.82;2.92;;;10.60;99.90;;;;;;5068177;28;20147;-63
2023/01/02 06:56:18;;;;;;;;;;;10.50;99.90;;;;;;5069126;28;20032;-59
2023/01/02 06:58:43;;;;;;;12.68;3.65;;;10.60;99.90;;;;;;5065881;28;20004;-62
2023/01/02 07:01:17;;;;;;;;;;;10.50;99.90;;;;;;5067564;28;20493;-63
2023/01/02 07:03:42;;;;;;;16.23;3.13;;;10.50;99.90;;;;;;5061253;28;20023;-63
2023/01/02 07:06:09;;;;;;;;;;;10.50;99.90;;;;;;5069318;28;20127;-63
2023/01/02 07:08:35;;;;;;;12.73;2.95;;;10.50;99.90;;;;;;5065919;28;20030;-62
2023/01/02 07:11:11;;;;;;;10.57;2.55;;;10.50;99.90;;;;;;5070672;28;20044;-61
2023/01/02 07:13:38;;;;;;;25.27;3.95;;;10.40;99.90;;;;;;5061517;28;20158;-62
2023/01/02 07:16:07;;;;;;;16.58;2.58;;;10.40;99.90;;;;;;5062681;28;20131;-62
2023/01/02 07:18:33;;;;;;;15.07;3.45;;;10.40;99.90;;;;;;5065066;28;20052;-63
2023/01/02 07:20:59;;;;;;;17.17;2.97;;;10.40;99.90;;;;;;5067549;28;20036;-62
2023/01/02 07:23:24;;;;;;;;;;;10.40;99.90;;;;;;5063593;28;20049;-62
2023/01/02 07:25:55;;;;;;;10.65;2.60;;;10.40;99.90;;;;;;5059051;28;19927;-61
2023/01/02 07:28:22;;;;;;;18.15;3.58;;;10.30;99.90;;;;;;5065897;28;20500;-62
2023/01/02 07:30:48;;;;;;;9.80;2.50;;;10.30;99.90;;;;;;5070625;28;20356;-62
2023/01/02 07:33:13;;;;;;;;;;;10.30;99.90;;;;;;5069257;28;20032;-63
2023/01/02 07:35:39;;;;;;;8.77;2.60;;;10.30;99.90;;;;;;5068829;28;19920;-62
2023/01/02 07:38:04;;;;;;;;;;;10.30;99.90;;;;;;5067361;28;20037;-62
2023/01/02 07:40:31;;;;;;;20.00;3.25;;;10.30;99.90;;;;;;5067425;28;19925;-62
2023/01/02 07:42:57;;;;;;;11.13;2.92;;;10.20;99.90;;;;;;5069374;28;20040;-63
2023/01/02 07:45:22;;;;;;;;;;;10.20;99.90;;;;;;5069798;28;20093;-62
2023/01/02 07:47:48;;;;;;;13.70;2.78;;;10.20;99.90;;;;;;5071868;28;19967;-62
2023/01/02 07:50:13;;;;;;;;;;;10.10;99.90;;;;;;5067585;28;20447;-62
2023/01/02 07:52:41;;;;;;;12.73;2.78;;;10.20;99.90;;;;;;5064653;28;19927;-62
2023/01/02 07:55:07;;;;;;;13.55;3.28;;;10.10;99.90;;;;;;5066979;28;20048;-63
2023/01/02 07:57:33;;;;;;;;;;;10.10;99.90;;;;;;5072043;28;20047;-63
2023/01/02 07:59:59;;;;;;;8.48;2.78;;;10.10;99.90;;;;;;5067785;28;19920;-62
2023/01/02 08:02:24;;;;;;;;;;;10.10;99.90;;;;;;5071075;28;20059;-63
2023/01/02 08:04:50;;;;;;;14.60;3.03;;;10.10;99.90;;;;;;5055792;28;19952;-62
2023/01/02 08:07:15;;;;;;;19.50;3.28;;;10.10;99.90;;;;;;5069717;28;20048;-61
2023/01/02 08:09:41;;;;;;;;;;;10.10;99.90;;;;;;5064334;28;20182;-62
2023/01/02 08:12:07;;;;;;;9.43;2.95;;;10.10;99.90;;;;;;5071973;28;19998;-62
2023/01/02 08:14:32;;;;;;;;;;;10.10;99.90;;;;;;5067680;28;20463;-62
2023/01/02 08:16:58;;;;;;;15.95;3.63;;;10.10;99.90;;;;;;5069152;28;19928;-62
2023/01/02 08:19:23;;;;;;;;;;;10.10;99.90;;;;;;5066064;28;20033;-61
2023/01/02 08:21:49;;;;;;;10.98;2.63;;;10.10;99.90;;;;;;5068335;28;20254;-61
2023/01/02 08:24:14;;;;;;;;;;;10.10;99.90;;;;;;5067317;28;20411;-62
2023/01/02 08:26:40;;;;;;;12.35;2.38;;;10.10;99.90;;;;;;5068163;28;20033;-62
2023/01/02 08:29:07;;;;;;;;;;;10.10;99.90;;;;;;5068435;28;20362;-62
2023/01/02 08:31:33;;;;;;;13.20;2.45;;;10.20;99.90;;;;;;5070141;28;19916;-60
2023/01/02 08:33:59;;;;;;;;;;;10.10;99.90;;;;;;5057368;28;20051;-62
2023/01/02 08:36:24;;;;;;;15.90;3.20;;;10.20;99.90;;;;;;5068125;28;19916;-62
2023/01/02 08:38:50;;;;;;;;;;;10.20;99.90;;;;;;5057488;28;20043;-61
2023/01/02 08:41:29;;;;;;;13.95;2.40;;;10.20;99.90;;;;;;5065690;28;19920;-62
2023/01/02 08:43:55;;;;;;;19.35;3.20;;;10.20;99.90;;;;;;5059265;28;20033;-60
2023/01/02 08:46:21;;;;;;;;;;;10.20;99.90;;;;;;5069165;28;20519;-62
2023/01/02 08:48:46;;;;;;;10.82;2.97;;;10.10;99.90;;;;;;5055629;28;19920;-62
2023/01/02 08:51:12;;;;;;;;;;;10.10;99.90;;;;;;5068695;28;20036;-62
2023/01/02 08:53:37;;;;;;;18.10;3.03;;;10.20;99.90;;;;;;5064952;28;20015;-61
2023/01/02 08:56:16;;;;;;;13.55;3.35;;;10.20;99.90;;;;;;5064045;28;20385;-63
2023/01/02 08:58:42;;;;;;;10.60;2.60;;;10.20;99.90;;;;;;5058739;28;20040;-61
2023/01/02 09:01:07;;;;;;;;;;;10.20;99.90;;;;;;5067518;28;20081;-61
2023/01/02 09:03:33;;;;;;;13.20;2.55;;;10.30;99.90;;;;;;5066257;28;19916;-61
2023/01/02 09:05:58;;;;;;;;;;;10.30;99.90;;;;;;5064347;28;20037;-61
2023/01/02 09:08:24;;;;;;;13.43;2.35;;;10.30;99.90;;;;;;5062294;28;19920;-59
2023/01/02 09:10:49;;;;;;;;;;;10.30;99.90;;;;;;5066011;28;20128;-62
2023/01/02 09:13:15;;;;;;;10.75;3.00;;;10.30;99.90;;;;;;5067453;28;19928;-61
2023/01/02 09:15:43;;;;;;;;;;;10.30;99.90;;;;;;5066173;28;20034;-61
2023/01/02 09:18:09;;;;;;;15.27;2.95;;;10.30;99.90;;;;;;5066451;28;19928;-62
2023/01/02 09:20:38;;;;;;;;;;;10.30;99.90;;;;;;5064699;28;20474;-61
2023/01/02 09:23:03;;;;;;;8.77;2.17;;;10.30;99.90;;;;;;5064664;28;19920;-61
2023/01/02 09:25:29;;;;;;;;;;;10.30;99.90;;;;;;5063901;28;20032;-63
2023/01/02 09:27:54;;;;;;;10.05;2.20;;;10.20;99.90;;;;;;5067772;28;20003;-61
2023/01/02 09:30:20;;;;;;;;;;;10.30;99.90;;;;;;5061480;28;20481;-62
2023/01/02 09:32:47;;;;;;;15.95;2.95;;;10.40;99.90;;;;;;5070106;28;19924;-62
2023/01/02 09:35:14;;;;;;;13.38;3.20;;;10.40;99.90;;;;;;5060387;28;20032;-61
2023/01/02 09:37:39;;;;;;;6.65;2.38;;;10.50;99.90;;;;;;5058561;28;20048;-62
2023/01/02 09:40:05;;;;;;;;;;;10.50;99.90;;;;;;5035674;28;20396;-61
2023/01/02 09:42:32;;;;;;;9.23;2.73;;;10.60;99.90;;;;;;5070404;28;20379;-62
2023/01/02 09:44:59;;;;;;;;;;;10.70;99.90;;;;;;5064441;28;20099;-61
2023/01/02 09:47:29;;;;;;;15.73;2.55;;;10.80;99.90;;;;;;5067483;28;20384;-61
2023/01/02 09:50:04;;;;;;;9.75;2.50;;;10.80;99.90;;;;;;5063363;28;20044;-60
2023/01/02 09:52:38;;;;;;;14.27;2.38;;;10.90;99.90;;;;;;5066926;28;20044;-60
2023/01/02 09:55:16;;;;;;;18.38;2.72;;;10.90;99.90;;;;;;5060894;28;20044;-61
2023/01/02 09:57:52;;;;;;;19.95;2.67;;;10.90;99.90;;;;;;5068021;28;20052;-60
2023/01/02 10:00:20;;;;;;;13.23;2.23;;;10.90;99.90;;;;;;5060922;28;20454;-61
2023/01/02 10:03:16;;;;;;;10.35;2.65;;;11.00;99.90;;;;;;5060950;28;20041;-61
2023/01/02 10:06:03;;;;;;;9.13;2.28;;;11.00;99.90;;;;;;5052182;28;20036;-61
2023/01/02 10:08:31;;;;;;;;;;;11.00;99.90;;;;;;5058143;28;20096;-60
2023/01/02 10:11:16;;;;;;;8.25;1.70;;;10.90;99.90;;;;;;5058952;28;19916;-61
2023/01/02 10:14:03;;;;;;;11.82;1.95;;;10.90;99.90;;;;;;5057187;28;20045;-61
2023/01/02 10:16:38;;;;;;;5.63;1.92;;;10.90;99.90;;;;;;5056698;28;20040;-62
2023/01/02 10:19:15;;;;;;;8.75;1.90;;;10.90;99.90;;;;;;5056071;28;20051;-62
2023/01/02 10:21:43;;;;;;;14.93;2.13;;;10.80;99.90;;;;;;5063539;28;20111;-60
2023/01/02 10:24:18;;;;;;;7.50;1.92;;;10.80;99.90;;;;;;5037350;28;20392;-62
2023/01/02 10:26:51;;;;;;;12.15;1.90;;;10.80;99.90;;;;;;5066331;28;20044;-62
2023/01/02 10:29:31;;;;;;;11.32;2.15;;;10.80;99.90;;;;;;5054026;28;20400;-61
2023/01/02 10:32:03;;;;;;;11.00;2.10;;;10.70;99.90;;;;;;5059387;28;20040;-63
2023/01/02 10:34:41;;;;;;;8.20;1.83;;;10.70;99.90;;;;;;5060839;28;20037;-60
2023/01/02 10:37:13;;;;;;;7.75;1.92;;;10.60;99.90;;;;;;5064035;28;20123;-61
2023/01/02 10:39:42;;;;;;;8.52;1.90;;;10.50;99.90;;;;;;5064189;28;20041;-61
2023/01/02 10:42:12;;;;;;;8.40;2.13;;;10.40;99.90;;;;;;5066976;28;20117;-61
2023/01/02 10:44:39;;;;;;;14.15;1.70;;;10.40;99.90;;;;;;5055986;28;20087;-62
2023/01/02 10:47:20;;;;;;;9.05;1.85;;;10.30;99.90;;;;;;5062086;28;20045;-61
2023/01/02 10:49:47;;;;;;;6.13;1.52;;;10.30;99.90;;;;;;5051791;28;20143;-62
2023/01/02 10:52:28;;;;;;;3.13;1.05;;;10.20;99.90;;;;;;5058665;28;20044;-62
2023/01/02 10:54:58;;;;;;;3.13;1.08;;;10.10;99.90;;;;;;5061887;28;20420;-61
2023/01/02 10:57:25;;;;;;;3.35;0.80;;;10.10;99.90;;;;;;5066832;28;20044;-62
2023/01/02 10:59:59;;;;;;;1.40;0.60;;;10.10;99.90;;;;;;5056487;28;20036;-63
2023/01/02 11:02:39;;;;;;;2.45;0.50;;;10.00;99.90;;;;;;5057166;28;20041;-63
2023/01/02 11:05:14;;;;;;;3.05;1.00;;;10.00;99.90;;;;;;5053554;28;20107;-63
2023/01/02 11:07:46;;;;;;;5.25;1.02;;;10.00;99.90;;;;;;5065463;28;20534;-66
2023/01/02 11:10:31;;;;;;;2.83;1.00;;;10.00;99.90;;;;;;5056787;28;20058;-64
2023/01/02 11:13:02;;;;;;;3.55;0.80;;;10.00;99.90;;;;;;5066439;28;20044;-62
2023/01/02 11:15:33;;;;;;;4.15;0.90;;;9.90;99.90;;;;;;5063196;28;20043;-65
2023/01/02 11:18:00;;;;;;;2.22;0.80;;;9.90;99.90;;;;;;5065321;28;20151;-60
2023/01/02 11:20:28;;;;;;;2.08;0.68;;;9.90;99.90;;;;;;5062996;28;20044;-62
2023/01/02 11:23:02;;;;;;;2.35;0.90;;;9.90;99.90;;;;;;5065449;28;20033;-64
2023/01/02 11:25:39;;;;;;;4.57;1.42;;;10.00;99.90;;;;;;5058245;28;20064;-63
2023/01/02 11:28:12;;;;;;;4.20;1.33;;;10.00;99.90;;;;;;5065846;28;20072;-64
2023/01/02 11:30:50;;;;;;;3.90;0.90;;;10.00;99.90;;;;;;5067179;28;20044;-64
2023/01/02 11:33:48;;;;;;;2.55;0.88;;;10.00;99.90;;;;;;5061638;28;20048;-62
2023/01/02 11:36:18;;;;;;;1.50;0.70;;;10.00;99.90;;;;;;5033155;28;20056;-63
2023/01/02 11:38:52;;;;;;;1.45;0.63;;;10.00;99.90;;;;;;5063779;28;20044;-63
2023/01/02 11:41:21;;;;;;;3.90;0.70;;;10.10;99.90;;;;;;5068153;28;20392;-64
2023/01/02 11:43:54;;;;;;;1.98;0.50;;;10.00;99.90;;;;;;5057028;28;20035;-64
2023/01/02 11:46:35;;;;;;;1.27;0.50;;;10.00;99.90;;;;;;5067959;28;20049;-63
2023/01/02 11:49:23;;;;;;;1.15;0.63;;;10.00;99.90;;;;;;5062780;28;20036;-65
2023/01/02 11:51:58;;;;;;;3.63;1.20;;;10.00;99.90;;;;;;5067995;28;20475;-63
2023/01/02 11:55:05;;;;;;;2.75;0.68;;;10.00;99.90;;;;;;5062511;28;20737;-63
2023/01/02 11:57:42;;;;;;;3.60;1.63;;;10.00;99.90;;;;;;5063199;28;20060;-64
2023/01/02 12:00:12;;;;;;;1.08;0.55;;;10.00;99.90;;;;;;5063131;28;20040;-63
2023/01/02 12:02:47;;;;;;;1.80;0.60;;;9.90;99.90;;;;;;5067144;28;20040;-63
2023/01/02 12:05:17;;;;;;;2.75;1.00;;;9.90;99.90;;;;;;5065109;28;20041;-63
2023/01/02 12:07:58;;;;;;;0.50;0.50;;;9.90;99.90;;;;;;5067397;28;20063;-64
2023/01/02 12:10:27;;;;;;;3.20;0.50;;;9.80;99.90;;;;;;5065085;28;20354;-63
2023/01/02 12:13:11;;;;;;;1.08;0.47;;;9.80;99.90;;;;;;5070532;28;20040;-63
2023/01/02 12:15:52;;;;;;;1.48;0.85;;;9.80;99.90;;;;;;5066065;28;20824;-63
2023/01/02 12:18:27;;;;;;;4.78;0.75;;;9.80;99.90;;;;;;5076147;28;20028;-64
2023/01/02 12:20:59;;;;;;;1.95;0.50;;;9.80;99.90;;;;;;5065725;28;20040;-63
2023/01/02 12:23:53;;;;;;;1.67;0.50;;;9.80;99.90;;;;;;5072576;28;20131;-64
2023/01/02 12:26:38;;;;;;;1.27;0.40;;;9.80;99.90;;;;;;5077015;28;20048;-63
2023/01/02 12:29:21;;;;;;;0.93;0.40;;;9.80;99.90;;;;;;5072485;28;20073;-63
2023/01/02 12:31:56;;;;;;;0.77;0.60;;;9.80;99.90;;;;;;5067049;28;20044;-63
2023/01/02 12:34:54;;;;;;;0.80;0.52;;;9.80;99.90;;;;;;5071830;28;20104;-65
2023/01/02 12:37:53;;;;;;;1.23;0.70;;;9.80;99.90;;;;;;5045106;28;20044;-63
2023/01/02 12:40:43;;;;;;;0.90;0.82;;;9.80;99.90;;;;;;5068500;28;20043;-63
2023/01/02 12:43:08;;;;;;;4.78;1.20;;;9.70;99.90;;;;;;5060182;28;20557;-63
2023/01/02 12:45:37;;;;;;;;;;;9.70;99.90;;;;;;5067279;28;20070;-62
2023/01/02 12:48:14;;;;;;;3.40;1.20;;;9.70;99.90;;;;;;5068789;28;19928;-63
2023/01/02 12:50:45;;;;;;;2.00;1.23;;;9.60;99.90;;;;;;5068717;28;20457;-63
2023/01/02 12:53:31;;;;;;;1.20;1.10;;;9.60;99.90;;;;;;5065607;28;20036;-63
2023/01/02 12:56:05;;;;;;;1.77;1.40;;;9.60;99.90;;;;;;5063194;28;20041;-66
2023/01/02 12:59:08;;;;;;;2.60;1.20;;;9.50;99.90;;;;;;5065255;28;20041;-64
2023/01/02 13:01:36;;;;;;;1.80;1.40;;;9.50;99.90;;;;;;5069824;28;20050;-62
2023/01/02 13:04:26;;;;;;;1.60;1.25;;;9.50;99.90;;;;;;5066109;28;20730;-63
2023/01/02 13:06:59;;;;;;;1.83;1.63;;;9.40;99.90;;;;;;5063985;28;20083;-64
2023/01/02 13:09:30;;;;;;;1.67;1.58;;;9.30;99.90;;;;;;5063814;28;20040;-63
2023/01/02 13:12:14;;;;;;;2.55;1.50;;;9.30;99.90;;;;;;5069021;28;20040;-64
2023/01/02 13:15:08;;;;;;;5.30;1.73;;;9.30;99.90;;;;;;5072046;28;20041;-64
2023/01/02 13:17:49;;;;;;;1.75;1.40;;;9.30;99.90;;;;;;5071016;28;20554;-62
2023/01/02 13:21:01;;;;;;;2.05;1.65;;;9.30;99.90;;;;;;5069547;28;20063;-64
2023/01/02 13:23:42;;;;;;;1.90;1.30;;;9.30;99.90;;;;;;5068450;28;20720;-64
2023/01/02 13:26:14;;;;;;;2.05;1.60;;;9.30;99.90;;;;;;5063443;28;20044;-64